createdAt,value
2019-03-28T07:00:35.199Z,67.33
2019-03-28T07:01:35.200Z,67.23
2019-03-28T07:02:35.150Z,67.33
2019-03-28T07:03:35.146Z,67.44
2019-03-28T07:04:35.166Z,67.23
2019-03-28T07:05:35.117Z,66.72
2019-03-28T07:06:35.143Z,67.13
2019-03-28T07:07:35.095Z,67.51
2019-03-28T07:08:35.138Z,67.95
2019-03-28T07:09:35.078Z,68.37
2019-03-28T07:10:35.107Z,67.51
2019-03-28T07:11:35.053Z,67.65
2019-03-28T07:12:35.080Z,67.61
2019-03-28T07:13:35.065Z,67.71
2019-03-28T07:14:35.038Z,67.82
2019-03-28T07:15:36.710Z,67.82
2019-03-28T07:16:35.000Z,67.20
2019-03-28T07:17:35.034Z,67.20
2019-03-28T07:18:34.997Z,67.00
2019-03-28T07:19:34.968Z,67.30
2019-03-28T07:20:34.961Z,66.79
2019-03-28T07:21:34.968Z,67.30
2019-03-28T07:22:34.993Z,66.79
2019-03-28T07:23:34.925Z,66.93
2019-03-28T07:24:34.928Z,67.03
2019-03-28T07:25:34.938Z,67.10
2019-03-28T07:26:34.911Z,67.54
2019-03-28T07:27:34.906Z,67.23
2019-03-28T07:28:34.882Z,67.54
2019-03-28T07:29:34.885Z,67.00
2019-03-28T07:30:34.870Z,66.82
2019-03-28T07:31:35.580Z,66.79
2019-03-28T07:32:34.881Z,67.44
2019-03-28T07:33:34.849Z,66.82
2019-03-28T07:34:34.839Z,67.54
2019-03-28T07:35:34.807Z,67.03
2019-03-28T07:36:34.841Z,67.23
2019-03-28T07:37:34.789Z,66.89
2019-03-28T07:38:34.767Z,67.23
2019-03-28T07:39:34.764Z,66.79
2019-03-28T07:40:34.798Z,66.89
2019-03-28T07:41:34.769Z,67.13
2019-03-28T07:42:34.732Z,67.44
2019-03-28T07:43:34.717Z,66.79
2019-03-28T07:44:37.471Z,67.54
2019-03-28T07:45:34.769Z,66.89
2019-03-28T07:46:34.746Z,66.79
2019-03-28T07:47:34.668Z,66.69
2019-03-28T07:48:34.663Z,67.10
2019-03-28T07:49:37.491Z,67.10
2019-03-28T07:50:34.654Z,66.28
2019-03-28T07:51:34.694Z,67.20
2019-03-28T07:52:34.619Z,66.28
2019-03-28T07:53:34.610Z,66.28
2019-03-28T07:54:34.600Z,66.35
2019-03-28T07:55:34.608Z,66.86
2019-03-28T07:56:34.619Z,66.14
2019-03-28T07:57:34.566Z,65.73
2019-03-28T07:58:35.292Z,66.25
2019-03-28T07:59:34.559Z,66.25
2019-03-28T08:00:34.558Z,67.07
2019-03-28T08:01:34.531Z,66.86
2019-03-28T08:02:34.520Z,66.55
2019-03-28T08:03:34.550Z,66.96
2019-03-28T08:04:34.491Z,66.31
2019-03-28T08:05:34.489Z,66.31
2019-03-28T08:06:34.475Z,65.19
2019-03-28T08:07:44.235Z,64.95
2019-03-28T08:08:39.033Z,64.95
2019-03-28T08:09:36.869Z,65.67
2019-03-28T08:10:34.423Z,64.75
2019-03-28T08:11:34.584Z,65.33
2019-03-28T08:12:34.410Z,65.06
2019-03-28T08:13:34.418Z,65.12
2019-03-28T08:14:34.382Z,64.72
2019-03-28T08:15:34.426Z,64.61
2019-03-28T08:16:34.361Z,64.51
2019-03-28T08:17:34.349Z,64.51
2019-03-28T08:18:34.344Z,64.51
2019-03-28T08:19:34.324Z,64.31
2019-03-28T08:20:34.351Z,64.61
2019-03-28T08:21:34.311Z,64.79
2019-03-28T08:22:34.294Z,64.59
2019-03-28T08:23:35.491Z,64.69
2019-03-28T08:24:34.303Z,64.17
2019-03-28T08:25:34.259Z,64.28
2019-03-28T08:26:34.307Z,63.94
2019-03-28T08:27:34.237Z,63.84
2019-03-28T08:28:34.225Z,64.04
2019-03-28T08:29:34.221Z,63.02
2019-03-28T08:30:34.253Z,63.50
2019-03-28T08:31:34.196Z,62.78
2019-03-28T08:32:34.722Z,63.20
2019-03-28T08:33:34.170Z,63.09
2019-03-28T08:34:34.162Z,62.78
2019-03-28T08:35:34.184Z,62.88
2019-03-28T08:36:34.142Z,62.88
2019-03-28T08:37:34.143Z,63.09
2019-03-28T08:38:34.152Z,62.96
2019-03-28T08:39:34.118Z,62.65
2019-03-28T08:40:34.098Z,62.96
2019-03-28T08:41:34.094Z,62.62
2019-03-28T08:42:34.112Z,62.32
2019-03-28T08:43:36.053Z,61.60
2019-03-28T08:44:34.058Z,61.26
2019-03-28T08:45:34.495Z,61.16
2019-03-28T08:46:34.039Z,60.96
2019-03-28T08:47:34.054Z,60.96
2019-03-28T08:48:34.012Z,60.03
2019-03-28T08:49:34.007Z,60.24
2019-03-28T08:50:34.011Z,60.55
2019-03-28T08:51:34.123Z,60.93
2019-03-28T08:52:34.002Z,60.21
2019-03-28T08:53:33.960Z,60.42
2019-03-28T08:54:33.954Z,61.34
2019-03-28T08:55:33.941Z,60.93
2019-03-28T08:56:33.924Z,61.13
2019-03-28T08:57:33.957Z,60.42
2019-03-28T08:58:33.901Z,59.98
2019-03-28T08:59:33.907Z,60.08
2019-03-28T09:00:50.208Z,59.78
2019-03-28T09:01:34.902Z,59.47
2019-03-28T09:02:33.867Z,58.55
2019-03-28T09:03:33.856Z,59.34
2019-03-28T09:04:33.839Z,59.57
2019-03-28T09:05:33.833Z,59.55
2019-03-28T09:06:33.845Z,59.23
2019-03-28T09:07:33.821Z,59.64
2019-03-28T09:08:33.796Z,59.34
2019-03-28T09:09:33.788Z,59.03
2019-03-28T09:10:33.804Z,58.73
2019-03-28T09:11:33.765Z,58.83
2019-03-28T09:12:35.284Z,59.64
2019-03-28T09:13:33.838Z,59.34
2019-03-28T09:14:33.735Z,60.05
2019-03-28T09:15:43.640Z,59.85
2019-03-28T09:16:34.706Z,59.75
2019-03-28T09:17:33.708Z,60.05
2019-03-28T09:18:33.741Z,60.05
2019-03-28T09:19:33.678Z,59.34
2019-03-28T09:20:33.667Z,59.14
2019-03-28T09:21:33.658Z,59.85
2019-03-28T09:22:34.465Z,59.44
2019-03-28T09:23:33.712Z,59.23
2019-03-28T09:24:33.629Z,60.26
2019-03-28T09:25:33.616Z,59.55
2019-03-28T09:26:33.600Z,59.64
2019-03-28T09:27:33.594Z,59.67
2019-03-28T09:28:33.602Z,59.85
2019-03-28T09:29:33.577Z,59.37
2019-03-28T09:30:46.822Z,59.47
2019-03-28T09:31:34.549Z,59.37
2019-03-28T09:32:33.539Z,59.57
2019-03-28T09:33:33.546Z,59.88
2019-03-28T09:34:33.517Z,59.67
2019-03-28T09:35:33.560Z,59.57
2019-03-28T09:36:33.504Z,59.78
2019-03-28T09:37:33.514Z,59.88
2019-03-28T09:38:33.512Z,59.67
2019-03-28T09:39:33.471Z,59.57
2019-03-28T09:40:33.449Z,60.01
2019-03-28T09:41:33.445Z,59.78
2019-03-28T09:42:33.426Z,60.08
2019-03-28T09:43:33.452Z,60.08
2019-03-28T09:44:33.407Z,60.11
2019-03-28T09:45:33.415Z,59.47
2019-03-28T09:46:33.385Z,60.11
2019-03-28T09:47:33.393Z,59.78
2019-03-28T09:48:33.386Z,60.31
2019-03-28T09:49:33.352Z,60.52
2019-03-28T09:50:33.344Z,60.31
2019-03-28T09:51:35.206Z,61.13
2019-03-28T09:52:33.354Z,60.93
2019-03-28T09:53:33.329Z,61.75
2019-03-28T09:54:33.307Z,61.34
2019-03-28T09:55:33.317Z,61.34
2019-03-28T09:56:33.288Z,61.54
2019-03-28T09:57:33.277Z,61.75
2019-03-28T09:58:33.912Z,61.75
2019-03-28T09:59:33.242Z,61.54
2019-03-28T10:00:34.606Z,61.85
2019-03-28T10:01:33.255Z,61.65
2019-03-28T10:02:33.215Z,62.46
2019-03-28T10:03:33.202Z,61.95
2019-03-28T10:04:33.230Z,62.16
2019-03-28T10:05:33.187Z,62.36
2019-03-28T10:06:33.172Z,62.16
2019-03-28T10:07:33.160Z,61.85
2019-03-28T10:08:33.148Z,61.54
2019-03-28T10:09:33.173Z,61.95
2019-03-28T10:10:33.136Z,62.77
2019-03-28T10:11:33.116Z,62.16
2019-03-28T10:12:34.323Z,61.65
2019-03-28T10:13:33.103Z,61.85
2019-03-28T10:14:33.119Z,61.85
2019-03-28T10:15:33.119Z,61.65
2019-03-28T10:16:33.095Z,61.95
2019-03-28T10:17:33.065Z,61.92
2019-03-28T10:18:33.039Z,61.75
2019-03-28T10:19:33.059Z,61.03
2019-03-28T10:20:33.060Z,61.75
2019-03-28T10:21:33.013Z,61.44
2019-03-28T10:22:32.994Z,60.69
2019-03-28T10:23:32.986Z,60.49
2019-03-28T10:24:32.994Z,60.72
2019-03-28T10:25:32.991Z,60.72
2019-03-28T10:26:32.981Z,61.34
2019-03-28T10:27:32.954Z,60.83
2019-03-28T10:28:32.935Z,61.00
2019-03-28T10:29:32.950Z,61.10
2019-03-28T10:30:32.917Z,61.41
2019-03-28T10:31:32.937Z,61.31
2019-03-28T10:32:32.895Z,61.00
2019-03-28T10:33:32.885Z,60.67
2019-03-28T10:34:32.871Z,60.87
2019-03-28T10:35:32.859Z,60.46
2019-03-28T10:36:32.882Z,60.16
2019-03-28T10:37:32.840Z,60.05
2019-03-28T10:38:32.831Z,59.82
2019-03-28T10:39:32.844Z,59.28
2019-03-28T10:40:32.807Z,59.31
2019-03-28T10:41:32.842Z,59.31
2019-03-28T10:42:32.795Z,59.39
2019-03-28T10:43:32.783Z,59.08
2019-03-28T10:44:32.760Z,59.39
2019-03-28T10:45:33.755Z,59.39
2019-03-28T10:46:32.763Z,59.49
2019-03-28T10:47:32.731Z,58.75
2019-03-28T10:48:32.728Z,58.44
2019-03-28T10:49:32.736Z,58.75
2019-03-28T10:50:40.742Z,57.93
2019-03-28T10:51:33.729Z,56.65
2019-03-28T10:52:32.675Z,56.65
2019-03-28T10:53:32.676Z,56.22
2019-03-28T10:54:32.658Z,55.00
2019-03-28T10:55:32.639Z,55.07
2019-03-28T10:56:32.631Z,55.48
2019-03-28T10:57:32.678Z,55.05
2019-03-28T10:58:34.980Z,53.72
2019-03-28T10:59:32.598Z,54.33
2019-03-28T11:00:32.602Z,54.54
2019-03-28T11:01:47.496Z,54.03
2019-03-28T11:02:33.592Z,54.21
2019-03-28T11:03:32.580Z,52.96
2019-03-28T11:04:32.546Z,52.53
2019-03-28T11:05:32.541Z,51.90
2019-03-28T11:06:32.723Z,50.65
2019-03-28T11:07:32.556Z,50.84
2019-03-28T11:08:32.513Z,50.53
2019-03-28T11:09:32.498Z,50.31
2019-03-28T11:10:32.480Z,50.00
2019-03-28T11:11:32.494Z,50.71
2019-03-28T11:12:32.464Z,50.51
2019-03-28T11:13:32.461Z,50.08
2019-03-28T11:14:32.473Z,49.57
2019-03-28T11:15:32.428Z,49.87
2019-03-28T11:16:32.412Z,49.16
2019-03-28T11:17:32.404Z,50.00
2019-03-28T11:18:32.434Z,50.00
2019-03-28T11:19:32.389Z,49.59
2019-03-28T11:20:32.375Z,50.40
2019-03-28T11:21:34.304Z,50.81
2019-03-28T11:22:32.352Z,50.51
2019-03-28T11:23:32.702Z,49.77
2019-03-28T11:24:32.331Z,50.00
2019-03-28T11:25:32.334Z,50.60
2019-03-28T11:26:32.315Z,50.71
2019-03-28T11:27:32.299Z,49.49
2019-03-28T11:28:32.326Z,49.90
2019-03-28T11:29:32.296Z,49.62
2019-03-28T11:30:32.277Z,50.02
2019-03-28T11:31:45.259Z,50.33
2019-03-28T11:32:35.789Z,48.99
2019-03-28T11:33:32.250Z,49.47
2019-03-28T11:34:32.235Z,48.55
2019-03-28T11:35:32.683Z,47.95
2019-03-28T11:36:32.204Z,47.42
2019-03-28T11:37:32.200Z,47.19
2019-03-28T11:38:32.210Z,47.07
2019-03-28T11:39:32.316Z,46.64
2019-03-28T11:40:32.171Z,45.69
2019-03-28T11:41:32.166Z,44.23
2019-03-28T11:42:32.140Z,43.91
2019-03-28T11:43:32.127Z,42.46
2019-03-28T11:44:32.154Z,42.47
2019-03-28T11:45:32.107Z,43.08
2019-03-28T11:46:32.098Z,42.55
2019-03-28T11:47:32.095Z,43.44
2019-03-28T11:48:32.090Z,43.73
2019-03-28T11:49:32.118Z,41.20
2019-03-28T11:50:32.054Z,41.29
2019-03-28T11:51:32.040Z,40.78
2019-03-28T11:52:32.031Z,39.48
2019-03-28T11:53:32.022Z,39.25
2019-03-28T11:54:32.043Z,37.45
2019-03-28T11:55:31.999Z,38.73
2019-03-28T11:56:31.995Z,38.71
2019-03-28T11:57:31.978Z,38.11
2019-03-28T11:58:31.970Z,37.65
2019-03-28T11:59:32.560Z,37.85
2019-03-28T12:00:31.978Z,37.85
2019-03-28T12:01:31.942Z,37.34
2019-03-28T12:02:31.930Z,36.22
2019-03-28T12:03:31.918Z,36.70
2019-03-28T12:04:31.928Z,36.62
2019-03-28T12:05:31.917Z,37.23
2019-03-28T12:06:31.885Z,37.23
2019-03-28T12:07:31.908Z,37.61
2019-03-28T12:08:31.856Z,35.28
2019-03-28T12:09:31.866Z,36.07
2019-03-28T12:10:31.914Z,35.95
2019-03-28T12:11:31.852Z,34.86
2019-03-28T12:12:31.832Z,34.88
2019-03-28T12:13:44.244Z,33.47
2019-03-28T12:14:32.794Z,33.79
2019-03-28T12:15:31.812Z,34.61
2019-03-28T12:16:31.805Z,35.43
2019-03-28T12:17:31.769Z,36.04
2019-03-28T12:18:31.773Z,35.45
2019-03-28T12:19:31.739Z,36.37
2019-03-28T12:20:31.763Z,37.18
2019-03-28T12:21:31.723Z,37.16
2019-03-28T12:22:31.711Z,36.64
2019-03-28T12:23:31.699Z,35.73
2019-03-28T12:24:31.723Z,35.71
2019-03-28T12:25:31.705Z,35.30
2019-03-28T12:26:31.666Z,37.30
2019-03-28T12:27:31.655Z,36.90
2019-03-28T12:28:31.645Z,35.70
2019-03-28T12:29:31.681Z,35.60
2019-03-28T12:30:31.661Z,36.18
2019-03-28T12:31:33.214Z,35.58
2019-03-28T12:32:31.606Z,34.79
2019-03-28T12:33:31.606Z,34.79
2019-03-28T12:34:31.609Z,35.23
2019-03-28T12:35:31.615Z,34.52
2019-03-28T12:36:31.560Z,35.14
2019-03-28T12:37:31.557Z,35.53
2019-03-28T12:38:31.551Z,37.14
2019-03-28T12:39:31.532Z,36.86
2019-03-28T12:40:31.540Z,36.86
2019-03-28T12:41:31.507Z,36.96
2019-03-28T12:42:31.521Z,37.16
2019-03-28T12:43:31.488Z,37.16
2019-03-28T12:44:31.483Z,37.07
2019-03-28T12:45:31.472Z,36.79
2019-03-28T12:46:31.486Z,37.31
2019-03-28T12:47:41.507Z,38.22
2019-03-28T12:48:32.560Z,38.52
2019-03-28T12:49:31.422Z,38.22
2019-03-28T12:50:31.411Z,37.62
2019-03-28T12:51:31.426Z,36.49
2019-03-28T12:52:31.393Z,36.89
2019-03-28T12:53:31.375Z,36.67
2019-03-28T12:54:31.370Z,37.48
2019-03-28T12:55:31.353Z,37.70
2019-03-28T12:56:31.373Z,37.80
2019-03-28T12:57:31.354Z,37.82
2019-03-28T12:58:31.327Z,37.51
2019-03-28T12:59:33.727Z,37.53
2019-03-28T13:00:31.330Z,39.45
2019-03-28T13:01:31.300Z,38.91
2019-03-28T13:02:32.076Z,37.98
2019-03-28T13:03:44.456Z,38.47
2019-03-28T13:04:32.259Z,37.26
2019-03-28T13:05:34.502Z,37.56
2019-03-28T13:06:31.268Z,38.39
2019-03-28T13:07:31.274Z,37.48
2019-03-28T13:08:31.221Z,37.18
2019-03-28T13:09:31.226Z,37.68
2019-03-28T13:10:31.195Z,37.68
2019-03-28T13:11:31.188Z,38.17
2019-03-28T13:12:31.177Z,37.36
2019-03-28T13:13:31.196Z,37.76
2019-03-28T13:14:31.488Z,37.48
2019-03-28T13:15:31.151Z,37.60
2019-03-28T13:16:31.612Z,37.62
2019-03-28T13:17:31.164Z,38.52
2019-03-28T13:18:31.138Z,38.82
2019-03-28T13:19:31.103Z,38.22
2019-03-28T13:20:31.095Z,38.62
2019-03-28T13:21:31.093Z,38.54
2019-03-28T13:22:31.071Z,39.04
2019-03-28T13:23:31.079Z,38.34
2019-03-28T13:24:31.076Z,38.95
2019-03-28T13:25:31.050Z,38.64
2019-03-28T13:26:31.026Z,39.47
2019-03-28T13:27:34.370Z,39.39
2019-03-28T13:28:31.005Z,39.69
2019-03-28T13:29:31.022Z,39.00
2019-03-28T13:30:31.003Z,39.83
2019-03-28T13:31:30.976Z,40.73
2019-03-28T13:32:41.216Z,40.73
2019-03-28T13:33:32.000Z,40.86
2019-03-28T13:34:30.949Z,40.95
2019-03-28T13:35:30.929Z,41.28
2019-03-28T13:36:30.925Z,41.18
2019-03-28T13:37:30.917Z,41.58
2019-03-28T13:38:30.897Z,41.38
2019-03-28T13:39:30.924Z,41.77
2019-03-28T13:40:30.891Z,41.26
2019-03-28T13:41:30.862Z,41.44
2019-03-28T13:42:30.849Z,41.64
2019-03-28T13:43:30.955Z,41.55
2019-03-28T13:44:30.929Z,41.35
2019-03-28T13:45:30.825Z,41.14
2019-03-28T13:46:30.810Z,40.94
2019-03-28T13:47:30.832Z,40.53
2019-03-28T13:48:30.831Z,41.14
2019-03-28T13:49:30.775Z,40.53
2019-03-28T13:50:30.767Z,40.73
2019-03-28T13:51:30.755Z,39.75
2019-03-28T13:52:30.755Z,40.66
2019-03-28T13:53:39.441Z,40.15
2019-03-28T13:54:31.737Z,41.06
2019-03-28T13:55:30.708Z,40.67
2019-03-28T13:56:30.728Z,40.98
2019-03-28T13:57:30.685Z,41.49
2019-03-28T13:58:30.684Z,41.49
2019-03-28T13:59:31.877Z,40.98
2019-03-28T14:00:30.677Z,41.89
2019-03-28T14:01:30.703Z,40.77
2019-03-28T14:02:30.634Z,40.77
2019-03-28T14:03:30.620Z,41.77
2019-03-28T14:04:30.644Z,41.66
2019-03-28T14:05:30.599Z,41.66
2019-03-28T14:06:30.865Z,41.64
2019-03-28T14:07:30.597Z,41.35
2019-03-28T14:08:30.637Z,39.83
2019-03-28T14:09:30.554Z,40.13
2019-03-28T14:10:30.604Z,40.86
2019-03-28T14:11:30.563Z,40.15
2019-03-28T14:12:31.931Z,41.06
2019-03-28T14:13:30.512Z,41.56
2019-03-28T14:14:30.498Z,41.35
2019-03-28T14:15:30.509Z,41.44
2019-03-28T14:16:30.885Z,41.24
2019-03-28T14:17:30.464Z,40.33
2019-03-28T14:18:30.486Z,40.73
2019-03-28T14:19:30.467Z,41.44
2019-03-28T14:20:30.440Z,41.04
2019-03-28T14:21:30.458Z,41.93
2019-03-28T14:22:30.591Z,41.63
2019-03-28T14:23:30.405Z,41.63
2019-03-28T14:24:30.396Z,40.21
2019-03-28T14:25:30.379Z,40.33
2019-03-28T14:26:30.363Z,41.85
2019-03-28T14:27:30.928Z,41.64
2019-03-28T14:28:30.340Z,41.55
2019-03-28T14:29:30.349Z,40.72
2019-03-28T14:30:30.322Z,41.32
2019-03-28T14:31:30.336Z,40.01
2019-03-28T14:32:33.081Z,40.21
2019-03-28T14:33:30.286Z,40.80
2019-03-28T14:34:30.273Z,40.80
2019-03-28T14:35:30.264Z,40.61
2019-03-28T14:36:30.457Z,41.20
2019-03-28T14:37:30.246Z,41.30
2019-03-28T14:38:30.229Z,41.83
2019-03-28T14:39:30.295Z,41.63
2019-03-28T14:40:30.237Z,41.75
2019-03-28T14:41:30.206Z,40.73
2019-03-28T14:42:30.204Z,41.64
2019-03-28T14:43:30.185Z,41.14
2019-03-28T14:44:30.201Z,41.26
2019-03-28T14:45:30.197Z,41.49
2019-03-28T14:46:30.151Z,41.38
2019-03-28T14:47:30.132Z,42.29
2019-03-28T14:48:30.137Z,43.20
2019-03-28T14:49:30.278Z,42.82
2019-03-28T14:50:30.150Z,42.52
2019-03-28T14:51:30.091Z,42.80
2019-03-28T14:52:30.101Z,43.41
2019-03-28T14:53:30.074Z,42.69
2019-03-28T14:54:30.079Z,42.90
2019-03-28T14:55:30.149Z,42.29
2019-03-28T14:56:30.090Z,42.60
2019-03-28T14:57:30.022Z,41.49
2019-03-28T14:58:30.019Z,42.29
2019-03-28T14:59:32.668Z,42.21
2019-03-28T15:00:30.074Z,42.41
2019-03-28T15:01:30.037Z,42.41
2019-03-28T15:02:30.001Z,42.41
2019-03-28T15:03:29.960Z,43.32
2019-03-28T15:04:29.994Z,43.23
2019-03-28T15:05:29.945Z,43.44
2019-03-28T15:06:29.969Z,42.94
2019-03-28T15:07:29.925Z,44.15
2019-03-28T15:08:29.919Z,44.18
2019-03-28T15:09:30.008Z,43.37
2019-03-28T15:10:29.876Z,44.07
2019-03-28T15:11:30.186Z,44.07
2019-03-28T15:12:29.859Z,44.48
2019-03-28T15:13:29.861Z,44.07
2019-03-28T15:14:29.877Z,44.07
2019-03-28T15:15:29.853Z,44.15
2019-03-28T15:16:29.861Z,43.06
2019-03-28T15:17:29.969Z,43.98
2019-03-28T15:18:30.023Z,43.37
2019-03-28T15:19:29.793Z,43.47
2019-03-28T15:20:29.828Z,43.89
2019-03-28T15:21:29.821Z,42.96
2019-03-28T15:22:29.756Z,43.38
2019-03-28T15:23:29.772Z,43.69
2019-03-28T15:24:29.766Z,44.20
2019-03-28T15:25:29.779Z,44.50
2019-03-28T15:26:30.384Z,44.50
2019-03-28T15:27:29.711Z,44.30
2019-03-28T15:28:29.700Z,43.49
2019-03-28T15:29:29.683Z,43.08
2019-03-28T15:30:29.889Z,42.47
2019-03-28T15:31:29.669Z,43.18
2019-03-28T15:32:30.803Z,43.08
2019-03-28T15:33:39.280Z,43.71
2019-03-28T15:34:30.648Z,43.59
2019-03-28T15:35:29.656Z,44.20
2019-03-28T15:36:29.653Z,44.32
2019-03-28T15:37:29.605Z,44.01
2019-03-28T15:38:31.243Z,43.41
2019-03-28T15:39:29.600Z,43.61
2019-03-28T15:40:29.577Z,44.54
2019-03-28T15:41:29.697Z,44.62
2019-03-28T15:42:29.545Z,43.93
2019-03-28T15:43:29.534Z,45.15
2019-03-28T15:44:29.652Z,44.65
2019-03-28T15:45:29.574Z,45.56
2019-03-28T15:46:29.541Z,45.76
2019-03-28T15:47:29.517Z,45.56
2019-03-28T15:48:29.494Z,46.06
2019-03-28T15:49:29.568Z,45.46
2019-03-28T15:50:29.470Z,45.25
2019-03-28T15:51:29.447Z,45.36
2019-03-28T15:52:29.444Z,45.36
2019-03-28T15:53:29.453Z,45.76
2019-03-28T15:54:29.493Z,45.66
2019-03-28T15:55:29.447Z,45.25
2019-03-28T15:56:29.404Z,45.36
2019-03-28T15:57:29.484Z,45.76
2019-03-28T15:58:29.373Z,46.17
2019-03-28T15:59:29.385Z,46.27
2019-03-28T16:00:29.427Z,45.36
2019-03-28T16:01:29.356Z,45.56
2019-03-28T16:02:29.360Z,45.66
2019-03-28T16:04:09.587Z,45.56
2019-03-28T16:05:38.113Z,45.86
2019-03-28T16:06:29.389Z,45.36
2019-03-28T16:07:29.647Z,45.54
2019-03-28T16:08:29.366Z,45.46
2019-03-28T16:09:29.255Z,45.46
2019-03-28T16:10:29.267Z,45.25
2019-03-28T16:11:29.283Z,45.46
2019-03-28T16:12:29.403Z,45.36
2019-03-28T16:13:29.220Z,45.66
2019-03-28T16:14:29.306Z,45.76
2019-03-28T16:15:29.198Z,45.66
2019-03-28T16:16:29.225Z,45.25
2019-03-28T16:17:29.168Z,45.86
2019-03-28T16:18:29.179Z,45.76
2019-03-28T16:19:32.154Z,46.27
2019-03-28T16:20:29.144Z,46.06
2019-03-28T16:21:29.123Z,46.17
2019-03-28T16:22:29.135Z,45.28
2019-03-28T16:23:29.573Z,45.89
2019-03-28T16:24:29.104Z,45.68
2019-03-28T16:25:29.105Z,45.58
2019-03-28T16:26:29.098Z,45.58
2019-03-28T16:27:29.097Z,46.37
2019-03-28T16:28:31.107Z,46.19
2019-03-28T16:29:34.103Z,45.78
2019-03-28T16:30:29.035Z,45.98
2019-03-28T16:31:29.025Z,46.19
2019-03-28T16:32:29.008Z,45.48
2019-03-28T16:33:29.005Z,46.09
2019-03-28T16:34:28.988Z,45.68
2019-03-28T16:35:29.026Z,45.68
2019-03-28T16:36:28.973Z,46.29
2019-03-28T16:37:28.990Z,46.67
2019-03-28T16:38:29.038Z,47.00
2019-03-28T16:40:39.339Z,46.70
2019-03-28T16:41:39.260Z,47.20
2019-03-28T16:42:39.276Z,46.70
2019-03-28T16:43:39.320Z,47.13
2019-03-28T16:44:39.410Z,47.00
2019-03-28T16:45:39.461Z,47.20
2019-03-28T16:46:39.248Z,46.80
2019-03-28T16:47:39.236Z,46.80
2019-03-28T16:48:39.203Z,47.22
2019-03-28T16:49:39.554Z,47.02
2019-03-28T16:50:39.158Z,47.02
2019-03-28T16:51:39.223Z,47.02
2019-03-28T16:52:39.151Z,47.33
2019-03-28T16:53:39.260Z,47.13
2019-03-28T16:54:39.181Z,46.94
2019-03-28T16:55:39.111Z,46.72
2019-03-28T16:56:39.122Z,47.86
2019-03-28T16:57:39.502Z,47.55
2019-03-28T16:58:39.121Z,47.66
2019-03-28T16:59:39.875Z,47.25
2019-03-28T17:00:39.057Z,47.45
2019-03-28T17:01:39.086Z,47.14
2019-03-28T17:02:39.054Z,47.86
2019-03-28T17:03:39.021Z,47.75
2019-03-28T17:04:39.015Z,48.16
2019-03-28T17:05:39.009Z,48.27
2019-03-28T17:06:39.024Z,47.96
2019-03-28T17:07:38.983Z,48.16
2019-03-28T17:08:39.052Z,47.86
2019-03-28T17:09:39.252Z,47.75
2019-03-28T17:10:38.957Z,47.66
2019-03-28T17:11:39.067Z,48.06
2019-03-28T17:12:39.023Z,46.94
2019-03-28T17:13:38.932Z,47.86
2019-03-28T17:14:38.906Z,48.06
2019-03-28T17:15:38.918Z,48.16
2019-03-28T17:16:38.917Z,47.78
2019-03-28T17:17:38.894Z,47.88
2019-03-28T17:18:38.974Z,47.88
2019-03-28T17:19:38.861Z,47.78
2019-03-28T17:20:38.844Z,48.59
2019-03-28T17:21:39.752Z,48.49
2019-03-28T17:22:38.868Z,49.20
2019-03-28T17:23:38.856Z,48.90
2019-03-28T17:24:38.808Z,49.00
2019-03-28T17:25:38.793Z,48.90
2019-03-28T17:26:38.782Z,48.90
2019-03-28T17:27:38.772Z,49.43
2019-03-28T17:28:38.799Z,49.43
2019-03-28T17:29:38.766Z,49.22
2019-03-28T17:30:38.738Z,49.51
2019-03-28T17:31:38.995Z,50.12
2019-03-28T17:32:38.911Z,50.52
2019-03-28T17:33:38.741Z,49.51
2019-03-28T17:34:38.737Z,49.61
2019-03-28T17:35:38.701Z,49.22
2019-03-28T17:36:38.680Z,49.22
2019-03-28T17:37:38.680Z,50.04
2019-03-28T17:38:38.715Z,49.73
2019-03-28T17:39:38.703Z,50.14
2019-03-28T17:40:38.732Z,49.22
2019-03-28T17:41:38.627Z,49.43
2019-03-28T17:42:38.700Z,49.33
2019-03-28T17:43:38.621Z,49.53
2019-03-28T17:44:38.613Z,50.24
2019-03-28T17:45:38.618Z,49.53
2019-03-28T17:46:38.599Z,49.63
2019-03-28T17:47:38.572Z,49.94
2019-03-28T17:48:38.554Z,49.84
2019-03-28T17:49:38.538Z,49.94
2019-03-28T17:50:38.569Z,50.65
2019-03-28T17:51:40.492Z,50.04
2019-03-28T17:52:38.498Z,49.94
2019-03-28T17:53:38.498Z,50.14
2019-03-28T17:54:38.582Z,50.34
2019-03-28T17:55:38.558Z,50.34
2019-03-28T17:56:38.507Z,50.65
2019-03-28T17:57:39.603Z,50.34
2019-03-28T17:58:38.455Z,50.14
2019-03-28T17:59:38.455Z,50.24
2019-03-28T18:00:38.516Z,50.37
2019-03-28T18:01:38.419Z,50.24
2019-03-28T18:02:38.402Z,50.47
2019-03-28T18:03:38.378Z,50.16
2019-03-28T18:04:47.937Z,50.85
2019-03-28T18:05:40.794Z,50.06
2019-03-28T18:06:39.944Z,50.37
2019-03-28T18:07:38.340Z,50.37
2019-03-28T18:08:38.426Z,50.06
2019-03-28T18:09:38.374Z,51.18
2019-03-28T18:10:38.330Z,50.87
2019-03-28T18:11:38.345Z,50.37
2019-03-28T18:12:38.287Z,50.98
2019-03-28T18:13:38.276Z,51.08
2019-03-28T18:14:38.272Z,51.08
2019-03-28T18:15:38.268Z,51.28
2019-03-28T18:16:38.283Z,51.20
2019-03-28T18:17:38.260Z,50.67
2019-03-28T18:18:38.307Z,51.18
2019-03-28T18:19:38.219Z,51.10
2019-03-28T18:20:38.209Z,51.10
2019-03-28T18:21:38.227Z,51.10
2019-03-28T18:22:38.361Z,51.51
2019-03-28T18:23:38.994Z,51.10
2019-03-28T18:24:38.227Z,50.90
2019-03-28T18:25:38.181Z,51.20
2019-03-28T18:26:38.227Z,51.10
2019-03-28T18:27:38.128Z,51.41
2019-03-28T18:28:38.153Z,50.80
2019-03-28T18:29:38.107Z,51.00
2019-03-28T18:30:38.192Z,52.43
2019-03-28T18:31:49.645Z,52.02
2019-03-28T18:32:39.599Z,52.12
2019-03-28T18:33:38.072Z,52.73
2019-03-28T18:34:38.050Z,52.53
2019-03-28T18:35:38.046Z,51.84
2019-03-28T18:36:38.091Z,52.25
2019-03-28T18:37:38.016Z,52.33
2019-03-28T18:38:38.016Z,53.16
2019-03-28T18:39:38.946Z,53.04
2019-03-28T18:40:38.087Z,52.66
2019-03-28T18:41:39.972Z,52.76
2019-03-28T18:42:38.001Z,52.25
2019-03-28T18:43:38.094Z,52.35
2019-03-28T18:44:38.016Z,52.25
2019-03-28T18:45:38.103Z,52.55
2019-03-28T18:46:40.287Z,52.35
2019-03-28T18:47:41.036Z,52.96
2019-03-28T18:48:38.493Z,53.06
2019-03-28T18:49:37.940Z,52.96
2019-03-28T18:50:41.153Z,53.06
2019-03-28T18:51:37.896Z,52.86
2019-03-28T18:52:37.909Z,52.86
2019-03-28T18:53:37.852Z,52.76
2019-03-28T18:54:37.921Z,53.27
2019-03-28T18:55:38.115Z,53.27
2019-03-28T18:56:37.986Z,52.35
2019-03-28T18:57:37.959Z,52.25
2019-03-28T18:58:37.899Z,51.94
2019-03-28T18:59:37.812Z,52.04
2019-03-28T19:00:37.794Z,52.35
2019-03-28T19:01:37.857Z,52.45
2019-03-28T19:02:37.807Z,52.76
2019-03-28T19:03:37.891Z,52.66
2019-03-28T19:04:37.759Z,52.76
2019-03-28T19:05:37.719Z,52.58
2019-03-28T19:06:37.708Z,52.76
2019-03-28T19:07:37.695Z,53.09
2019-03-28T19:08:37.722Z,53.88
2019-03-28T19:09:37.735Z,52.88
2019-03-28T19:10:37.838Z,53.09
2019-03-28T19:11:40.773Z,53.70
2019-03-28T19:12:37.653Z,53.70
2019-03-28T19:13:37.657Z,52.98
2019-03-28T19:14:37.622Z,52.98
2019-03-28T19:15:37.696Z,54.00
2019-03-28T19:16:37.615Z,53.90
2019-03-28T19:17:37.599Z,53.39
2019-03-28T19:18:37.618Z,53.19
2019-03-28T19:19:39.658Z,53.50
2019-03-28T19:20:37.561Z,53.39
2019-03-28T19:21:37.562Z,53.50
2019-03-28T19:22:37.539Z,53.52
2019-03-28T19:23:37.558Z,53.50
2019-03-28T19:24:37.516Z,53.11
2019-03-28T19:25:37.514Z,53.50
2019-03-28T19:26:37.512Z,53.31
2019-03-28T19:27:37.524Z,53.42
2019-03-28T19:28:37.492Z,54.24
2019-03-28T19:29:37.475Z,54.64
2019-03-28T19:30:38.709Z,54.74
2019-03-28T19:31:37.447Z,54.74
2019-03-28T19:32:37.431Z,54.13
2019-03-28T19:33:38.363Z,54.85
2019-03-28T19:34:37.413Z,54.36
2019-03-28T19:35:37.431Z,54.67
2019-03-28T19:36:37.404Z,54.36
2019-03-28T19:37:37.398Z,54.74
2019-03-28T19:38:37.380Z,54.46
2019-03-28T19:39:37.361Z,54.26
2019-03-28T19:40:37.379Z,54.77
2019-03-28T19:41:37.353Z,54.57
2019-03-28T19:42:37.329Z,54.77
2019-03-28T19:43:37.315Z,54.57
2019-03-28T19:44:37.312Z,54.90
2019-03-28T19:45:37.291Z,54.97
2019-03-28T19:46:37.323Z,55.18
2019-03-28T19:47:37.268Z,55.48
2019-03-28T19:48:37.260Z,55.30
2019-03-28T19:49:37.259Z,55.51
2019-03-28T19:50:37.242Z,55.30
2019-03-28T19:51:37.259Z,55.20
2019-03-28T19:52:37.219Z,55.61
2019-03-28T19:53:37.207Z,55.71
2019-03-28T19:54:37.196Z,55.91